sensor_id;sensor_type;location;lat;lon;timestamp;temperature;humidity
27759;DHT22;15148;48.972;12.794;2023-05-21T00:05:02;18.50;99.90
27759;DHT22;15148;48.972;12.794;2023-05-21T00:10:05;18.50;99.90
27759;DHT22;15148;48.972;12.794;2023-05-21T00:15:08;18.50;99.90
27759;DHT22;15148;48.972;12.794;2023-05-21T00:20:10;18.40;99.90
27759;DHT22;15148;48.972;12.794;2023-05-21T00:25:12;18.40;99.90
27759;DHT22;15148;48.972;12.794;2023-05-21T00:30:14;18.40;99.90
27759;DHT22;15148;48.972;12.794;2023-05-21T00:35:17;18.30;99.90
27759;DHT22;15148;48.972;12.794;2023-05-21T00:40:19;18.30;99.90
27759;DHT22;15148;48.972;12.794;2023-05-21T00:45:21;18.20;99.90
27759;DHT22;15148;48.972;12.794;2023-05-21T00:50:26;18.20;99.90
27759;DHT22;15148;48.972;12.794;2023-05-21T00:55:28;18.10;99.90
27759;DHT22;15148;48.972;12.794;2023-05-21T01:00:32;18.10;99.90
27759;DHT22;15148;48.972;12.794;2023-05-21T01:05:34;18.00;99.90
27759;DHT22;15148;48.972;12.794;2023-05-21T01:10:37;18.00;99.90
27759;DHT22;15148;48.972;12.794;2023-05-21T01:15:39;18.00;99.90
27759;DHT22;15148;48.972;12.794;2023-05-21T01:20:41;18.00;99.90
27759;DHT22;15148;48.972;12.794;2023-05-21T01:25:49;18.00;99.90
27759;DHT22;15148;48.972;12.794;2023-05-21T01:30:51;18.00;99.90
27759;DHT22;15148;48.972;12.794;2023-05-21T01:36:03;18.10;99.90
27759;DHT22;15148;48.972;12.794;2023-05-21T01:41:10;18.10;99.90
27759;DHT22;15148;48.972;12.794;2023-05-21T01:46:26;18.10;99.90
27759;DHT22;15148;48.972;12.794;2023-05-21T01:51:29;18.00;99.90
27759;DHT22;15148;48.972;12.794;2023-05-21T01:56:32;18.00;99.90
27759;DHT22;15148;48.972;12.794;2023-05-21T02:01:34;18.00;99.90
27759;DHT22;15148;48.972;12.794;2023-05-21T02:06:36;18.00;99.90
27759;DHT22;15148;48.972;12.794;2023-05-21T02:11:40;17.90;99.90
27759;DHT22;15148;48.972;12.794;2023-05-21T02:16:42;17.90;99.90
27759;DHT22;15148;48.972;12.794;2023-05-21T02:21:44;17.80;99.90
27759;DHT22;15148;48.972;12.794;2023-05-21T02:26:46;17.80;99.90
27759;DHT22;15148;48.972;12.794;2023-05-21T02:31:50;17.70;99.90
27759;DHT22;15148;48.972;12.794;2023-05-21T02:36:52;17.60;99.90
27759;DHT22;15148;48.972;12.794;2023-05-21T02:41:54;17.50;99.90
27759;DHT22;15148;48.972;12.794;2023-05-21T02:46:55;17.50;99.90
27759;DHT22;15148;48.972;12.794;2023-05-21T02:51:58;17.50;99.90
27759;DHT22;15148;48.972;12.794;2023-05-21T02:56:59;17.50;99.90
27759;DHT22;15148;48.972;12.794;2023-05-21T03:02:01;17.50;99.90
27759;DHT22;15148;48.972;12.794;2023-05-21T03:07:04;17.40;99.90
27759;DHT22;15148;48.972;12.794;2023-05-21T03:12:07;17.40;99.90
27759;DHT22;15148;48.972;12.794;2023-05-21T03:17:09;17.40;99.90
27759;DHT22;15148;48.972;12.794;2023-05-21T03:22:14;17.60;99.90
27759;DHT22;15148;48.972;12.794;2023-05-21T03:27:16;17.60;99.90
27759;DHT22;15148;48.972;12.794;2023-05-21T03:32:19;17.60;99.90
27759;DHT22;15148;48.972;12.794;2023-05-21T03:37:24;17.60;99.90
27759;DHT22;15148;48.972;12.794;2023-05-21T03:42:26;17.60;99.90
27759;DHT22;15148;48.972;12.794;2023-05-21T03:47:29;17.70;99.90
27759;DHT22;15148;48.972;12.794;2023-05-21T03:52:32;17.70;99.90
27759;DHT22;15148;48.972;12.794;2023-05-21T03:57:35;17.70;99.90
27759;DHT22;15148;48.972;12.794;2023-05-21T04:02:39;17.70;99.90
27759;DHT22;15148;48.972;12.794;2023-05-21T04:07:41;17.80;99.90
27759;DHT22;15148;48.972;12.794;2023-05-21T04:12:43;17.90;99.90
27759;DHT22;15148;48.972;12.794;2023-05-21T04:17:45;17.90;99.90
27759;DHT22;15148;48.972;12.794;2023-05-21T04:22:47;18.00;99.90
27759;DHT22;15148;48.972;12.794;2023-05-21T04:27:49;18.10;99.90
27759;DHT22;15148;48.972;12.794;2023-05-21T04:32:51;18.10;99.90
27759;DHT22;15148;48.972;12.794;2023-05-21T04:37:55;18.20;99.90
27759;DHT22;15148;48.972;12.794;2023-05-21T04:42:57;18.30;99.90
27759;DHT22;15148;48.972;12.794;2023-05-21T04:48:01;18.40;99.90
27759;DHT22;15148;48.972;12.794;2023-05-21T04:53:03;18.40;99.90
27759;DHT22;15148;48.972;12.794;2023-05-21T04:58:05;18.40;99.90
27759;DHT22;15148;48.972;12.794;2023-05-21T05:03:09;18.50;99.90
27759;DHT22;15148;48.972;12.794;2023-05-21T05:08:12;18.50;99.90
27759;DHT22;15148;48.972;12.794;2023-05-21T05:13:17;18.60;99.90
27759;DHT22;15148;48.972;12.794;2023-05-21T05:18:19;18.70;99.90
27759;DHT22;15148;48.972;12.794;2023-05-21T05:23:21;18.90;99.90
27759;DHT22;15148;48.972;12.794;2023-05-21T05:28:22;19.10;99.90
27759;DHT22;15148;48.972;12.794;2023-05-21T05:33:24;19.30;99.90
27759;DHT22;15148;48.972;12.794;2023-05-21T05:38:27;19.40;99.90
27759;DHT22;15148;48.972;12.794;2023-05-21T05:43:29;19.40;99.90
27759;DHT22;15148;48.972;12.794;2023-05-21T05:48:32;19.70;99.90
27759;DHT22;15148;48.972;12.794;2023-05-21T05:53:35;19.90;99.90
27759;DHT22;15148;48.972;12.794;2023-05-21T05:58:37;20.00;99.90
27759;DHT22;15148;48.972;12.794;2023-05-21T06:03:43;20.00;99.90
27759;DHT22;15148;48.972;12.794;2023-05-21T06:08:48;20.30;99.90
27759;DHT22;15148;48.972;12.794;2023-05-21T06:13:52;20.30;99.90
27759;DHT22;15148;48.972;12.794;2023-05-21T06:18:55;20.40;99.90
27759;DHT22;15148;48.972;12.794;2023-05-21T06:23:58;20.60;99.90
27759;DHT22;15148;48.972;12.794;2023-05-21T06:29:02;20.60;99.90
27759;DHT22;15148;48.972;12.794;2023-05-21T06:34:05;20.80;99.90
27759;DHT22;15148;48.972;12.794;2023-05-21T06:39:07;20.90;99.90
27759;DHT22;15148;48.972;12.794;2023-05-21T06:44:09;21.20;99.90
27759;DHT22;15148;48.972;12.794;2023-05-21T06:49:38;21.50;99.90
27759;DHT22;15148;48.972;12.794;2023-05-21T06:54:40;21.80;99.90
27759;DHT22;15148;48.972;12.794;2023-05-21T06:59:43;22.10;99.90
27759;DHT22;15148;48.972;12.794;2023-05-21T07:04:45;22.50;99.90
27759;DHT22;15148;48.972;12.794;2023-05-21T07:09:47;22.80;96.40
27759;DHT22;15148;48.972;12.794;2023-05-21T07:14:49;23.20;94.10
27759;DHT22;15148;48.972;12.794;2023-05-21T07:19:51;23.40;93.70
27759;DHT22;15148;48.972;12.794;2023-05-21T07:24:54;23.60;91.30
27759;DHT22;15148;48.972;12.794;2023-05-21T07:29:56;23.70;91.30
27759;DHT22;15148;48.972;12.794;2023-05-21T07:34:59;23.90;91.10
27759;DHT22;15148;48.972;12.794;2023-05-21T07:40:05;24.00;89.80
27759;DHT22;15148;48.972;12.794;2023-05-21T07:45:09;24.00;90.20
27759;DHT22;15148;48.972;12.794;2023-05-21T07:50:15;23.90;86.10
27759;DHT22;15148;48.972;12.794;2023-05-21T07:55:17;23.90;87.60
27759;DHT22;15148;48.972;12.794;2023-05-21T08:00:22;23.70;87.50
27759;DHT22;15148;48.972;12.794;2023-05-21T08:05:28;23.70;90.00
27759;DHT22;15148;48.972;12.794;2023-05-21T08:10:31;23.70;85.30
27759;DHT22;15148;48.972;12.794;2023-05-21T08:15:34;23.70;87.50
27759;DHT22;15148;48.972;12.794;2023-05-21T08:20:36;23.90;87.50
27759;DHT22;15148;48.972;12.794;2023-05-21T08:25:38;24.10;87.50
27759;DHT22;15148;48.972;12.794;2023-05-21T08:30:40;24.40;89.30
27759;DHT22;15148;48.972;12.794;2023-05-21T08:35:42;24.50;87.30
27759;DHT22;15148;48.972;12.794;2023-05-21T08:41:05;24.60;86.40
27759;DHT22;15148;48.972;12.794;2023-05-21T08:46:08;24.40;84.10
27759;DHT22;15148;48.972;12.794;2023-05-21T08:51:13;24.40;84.30
27759;DHT22;15148;48.972;12.794;2023-05-21T08:56:21;24.40;89.30
27759;DHT22;15148;48.972;12.794;2023-05-21T09:01:27;24.50;83.90
27759;DHT22;15148;48.972;12.794;2023-05-21T09:06:39;24.70;83.30
27759;DHT22;15148;48.972;12.794;2023-05-21T09:11:42;25.10;85.30
27759;DHT22;15148;48.972;12.794;2023-05-21T09:16:45;25.20;79.00
27759;DHT22;15148;48.972;12.794;2023-05-21T09:21:51;25.30;78.10
27759;DHT22;15148;48.972;12.794;2023-05-21T09:26:57;25.10;76.20
27759;DHT22;15148;48.972;12.794;2023-05-21T09:32:05;24.80;79.10
27759;DHT22;15148;48.972;12.794;2023-05-21T09:37:09;24.70;80.20
27759;DHT22;15148;48.972;12.794;2023-05-21T09:42:28;24.60;81.80
27759;DHT22;15148;48.972;12.794;2023-05-21T09:47:30;24.90;80.50
27759;DHT22;15148;48.972;12.794;2023-05-21T09:52:35;25.00;82.60
27759;DHT22;15148;48.972;12.794;2023-05-21T09:57:41;25.10;84.60
27759;DHT22;15148;48.972;12.794;2023-05-21T10:02:47;25.30;86.70
27759;DHT22;15148;48.972;12.794;2023-05-21T10:07:51;25.60;84.90
27759;DHT22;15148;48.972;12.794;2023-05-21T10:12:59;25.60;77.70
27759;DHT22;15148;48.972;12.794;2023-05-21T10:18:02;25.60;82.00
27759;DHT22;15148;48.972;12.794;2023-05-21T10:23:05;25.70;78.00
27759;DHT22;15148;48.972;12.794;2023-05-21T10:28:08;25.90;80.00
27759;DHT22;15148;48.972;12.794;2023-05-21T10:33:14;26.20;80.90
27759;DHT22;15148;48.972;12.794;2023-05-21T10:38:18;26.30;74.80
27759;DHT22;15148;48.972;12.794;2023-05-21T10:43:40;26.50;74.10
27759;DHT22;15148;48.972;12.794;2023-05-21T10:49:04;26.40;73.20
27759;DHT22;15148;48.972;12.794;2023-05-21T11:04:27;26.10;76.10
27759;DHT22;15148;48.972;12.794;2023-05-21T11:09:29;26.20;75.70
27759;DHT22;15148;48.972;12.794;2023-05-21T11:14:42;26.20;76.40
27759;DHT22;15148;48.972;12.794;2023-05-21T11:20:03;26.20;75.10
27759;DHT22;15148;48.972;12.794;2023-05-21T11:25:05;26.00;74.00
27759;DHT22;15148;48.972;12.794;2023-05-21T11:30:09;25.80;75.60
27759;DHT22;15148;48.972;12.794;2023-05-21T11:35:15;25.80;74.70
27759;DHT22;15148;48.972;12.794;2023-05-21T11:40:18;25.70;78.00
27759;DHT22;15148;48.972;12.794;2023-05-21T11:45:22;25.70;77.10
27759;DHT22;15148;48.972;12.794;2023-05-21T11:50:26;25.60;75.50
27759;DHT22;15148;48.972;12.794;2023-05-21T11:55:31;25.40;75.50
27759;DHT22;15148;48.972;12.794;2023-05-21T12:00:37;25.50;76.80
27759;DHT22;15148;48.972;12.794;2023-05-21T12:05:47;25.40;76.50
27759;DHT22;15148;48.972;12.794;2023-05-21T12:10:58;25.50;78.90
27759;DHT22;15148;48.972;12.794;2023-05-21T12:16:01;25.80;81.30
27759;DHT22;15148;48.972;12.794;2023-05-21T12:21:07;25.90;74.60
27759;DHT22;15148;48.972;12.794;2023-05-21T12:26:12;25.90;76.30
27759;DHT22;15148;48.972;12.794;2023-05-21T12:31:14;25.90;76.00
27759;DHT22;15148;48.972;12.794;2023-05-21T12:36:27;26.10;75.30
27759;DHT22;15148;48.972;12.794;2023-05-21T12:41:30;26.00;74.90
27759;DHT22;15148;48.972;12.794;2023-05-21T12:46:31;26.00;74.20
27759;DHT22;15148;48.972;12.794;2023-05-21T12:51:37;26.00;73.30
27759;DHT22;15148;48.972;12.794;2023-05-21T12:56:44;25.90;75.40
27759;DHT22;15148;48.972;12.794;2023-05-21T13:01:47;25.90;80.00
27759;DHT22;15148;48.972;12.794;2023-05-21T13:06:49;25.80;73.60
27759;DHT22;15148;48.972;12.794;2023-05-21T13:11:50;25.90;76.20
27759;DHT22;15148;48.972;12.794;2023-05-21T13:16:52;26.10;75.50
27759;DHT22;15148;48.972;12.794;2023-05-21T13:21:54;26.20;81.70
27759;DHT22;15148;48.972;12.794;2023-05-21T13:26:56;26.30;75.80
27759;DHT22;15148;48.972;12.794;2023-05-21T13:31:58;26.40;71.80
27759;DHT22;15148;48.972;12.794;2023-05-21T13:37:00;26.50;75.00
27759;DHT22;15148;48.972;12.794;2023-05-21T13:42:02;26.60;73.60
27759;DHT22;15148;48.972;12.794;2023-05-21T13:47:06;26.60;72.90
27759;DHT22;15148;48.972;12.794;2023-05-21T13:52:10;26.60;72.80
27759;DHT22;15148;48.972;12.794;2023-05-21T13:57:12;26.60;73.70
27759;DHT22;15148;48.972;12.794;2023-05-21T14:02:14;26.50;72.30
27759;DHT22;15148;48.972;12.794;2023-05-21T14:07:15;26.30;71.40
27759;DHT22;15148;48.972;12.794;2023-05-21T14:12:17;26.30;72.10
27759;DHT22;15148;48.972;12.794;2023-05-21T14:17:19;26.30;73.40
27759;DHT22;15148;48.972;12.794;2023-05-21T14:22:21;26.10;70.70
27759;DHT22;15148;48.972;12.794;2023-05-21T14:27:23;25.90;75.60
27759;DHT22;15148;48.972;12.794;2023-05-21T14:32:25;25.80;76.80
27759;DHT22;15148;48.972;12.794;2023-05-21T14:37:27;25.80;73.20
27759;DHT22;15148;48.972;12.794;2023-05-21T14:42:28;25.70;72.80
27759;DHT22;15148;48.972;12.794;2023-05-21T14:47:31;25.70;72.00
27759;DHT22;15148;48.972;12.794;2023-05-21T14:52:33;25.60;72.00
27759;DHT22;15148;48.972;12.794;2023-05-21T14:57:35;25.60;73.70
27759;DHT22;15148;48.972;12.794;2023-05-21T15:02:36;25.50;75.80
27759;DHT22;15148;48.972;12.794;2023-05-21T15:07:38;25.50;76.40
27759;DHT22;15148;48.972;12.794;2023-05-21T15:12:40;25.40;76.60
27759;DHT22;15148;48.972;12.794;2023-05-21T15:17:42;25.40;70.90
27759;DHT22;15148;48.972;12.794;2023-05-21T15:22:45;25.40;71.40
27759;DHT22;15148;48.972;12.794;2023-05-21T15:27:48;25.30;69.80
27759;DHT22;15148;48.972;12.794;2023-05-21T15:32:51;25.30;71.90
27759;DHT22;15148;48.972;12.794;2023-05-21T15:37:53;25.10;73.40
27759;DHT22;15148;48.972;12.794;2023-05-21T15:42:55;25.10;72.50
27759;DHT22;15148;48.972;12.794;2023-05-21T15:47:57;25.00;71.30
27759;DHT22;15148;48.972;12.794;2023-05-21T15:52:59;24.90;72.60
27759;DHT22;15148;48.972;12.794;2023-05-21T15:58:02;24.70;74.60
27759;DHT22;15148;48.972;12.794;2023-05-21T16:03:04;24.70;72.40
27759;DHT22;15148;48.972;12.794;2023-05-21T16:08:06;24.60;77.10
27759;DHT22;15148;48.972;12.794;2023-05-21T16:13:11;24.60;77.20
27759;DHT22;15148;48.972;12.794;2023-05-21T16:18:13;24.40;76.10
27759;DHT22;15148;48.972;12.794;2023-05-21T16:23:14;24.30;78.90
27759;DHT22;15148;48.972;12.794;2023-05-21T16:28:16;24.20;79.70
27759;DHT22;15148;48.972;12.794;2023-05-21T16:33:18;24.10;81.20
27759;DHT22;15148;48.972;12.794;2023-05-21T16:38:21;24.00;78.50
27759;DHT22;15148;48.972;12.794;2023-05-21T16:43:23;24.00;75.80
27759;DHT22;15148;48.972;12.794;2023-05-21T16:48:24;24.00;75.50
27759;DHT22;15148;48.972;12.794;2023-05-21T16:53:27;23.90;80.20
27759;DHT22;15148;48.972;12.794;2023-05-21T16:58:29;23.70;78.40
27759;DHT22;15148;48.972;12.794;2023-05-21T17:03:33;23.70;77.40
27759;DHT22;15148;48.972;12.794;2023-05-21T17:08:35;23.60;80.70
27759;DHT22;15148;48.972;12.794;2023-05-21T17:13:37;23.60;77.00
27759;DHT22;15148;48.972;12.794;2023-05-21T17:18:39;23.50;82.00
27759;DHT22;15148;48.972;12.794;2023-05-21T17:23:41;23.40;81.90
27759;DHT22;15148;48.972;12.794;2023-05-21T17:28:43;23.30;84.00
27759;DHT22;15148;48.972;12.794;2023-05-21T17:33:45;23.10;86.70
27759;DHT22;15148;48.972;12.794;2023-05-21T17:38:46;23.00;86.80
27759;DHT22;15148;48.972;12.794;2023-05-21T17:43:48;22.90;87.50
27759;DHT22;15148;48.972;12.794;2023-05-21T17:48:50;22.90;88.50
27759;DHT22;15148;48.972;12.794;2023-05-21T17:53:52;22.90;88.90
27759;DHT22;15148;48.972;12.794;2023-05-21T17:58:54;23.00;89.60
27759;DHT22;15148;48.972;12.794;2023-05-21T18:03:56;22.80;91.20
27759;DHT22;15148;48.972;12.794;2023-05-21T18:08:58;22.70;91.50
27759;DHT22;15148;48.972;12.794;2023-05-21T18:14:00;22.50;91.50
27759;DHT22;15148;48.972;12.794;2023-05-21T18:19:01;22.40;92.30
27759;DHT22;15148;48.972;12.794;2023-05-21T18:24:06;22.30;93.30
27759;DHT22;15148;48.972;12.794;2023-05-21T18:29:08;22.10;94.90
27759;DHT22;15148;48.972;12.794;2023-05-21T18:39:14;21.80;96.20
27759;DHT22;15148;48.972;12.794;2023-05-21T18:44:15;21.80;96.00
27759;DHT22;15148;48.972;12.794;2023-05-21T18:49:17;21.70;96.00
27759;DHT22;15148;48.972;12.794;2023-05-21T18:54:20;21.60;96.60
27759;DHT22;15148;48.972;12.794;2023-05-21T18:59:22;21.50;95.10
27759;DHT22;15148;48.972;12.794;2023-05-21T19:04:24;21.50;95.80
27759;DHT22;15148;48.972;12.794;2023-05-21T19:09:26;21.30;96.00
27759;DHT22;15148;48.972;12.794;2023-05-21T19:14:28;21.10;97.30
27759;DHT22;15148;48.972;12.794;2023-05-21T19:19:30;21.00;97.30
27759;DHT22;15148;48.972;12.794;2023-05-21T19:24:32;20.90;98.90
27759;DHT22;15148;48.972;12.794;2023-05-21T19:29:33;20.50;99.90
27759;DHT22;15148;48.972;12.794;2023-05-21T19:34:35;20.40;99.90
27759;DHT22;15148;48.972;12.794;2023-05-21T19:39:38;20.20;99.90
27759;DHT22;15148;48.972;12.794;2023-05-21T19:44:40;20.00;99.90
27759;DHT22;15148;48.972;12.794;2023-05-21T19:49:42;19.90;99.90
27759;DHT22;15148;48.972;12.794;2023-05-21T19:54:44;19.70;99.90
27759;DHT22;15148;48.972;12.794;2023-05-21T19:59:46;19.50;99.90
27759;DHT22;15148;48.972;12.794;2023-05-21T20:04:48;19.50;99.90
27759;DHT22;15148;48.972;12.794;2023-05-21T20:09:51;19.50;99.90
27759;DHT22;15148;48.972;12.794;2023-05-21T20:14:52;19.70;99.90
27759;DHT22;15148;48.972;12.794;2023-05-21T20:19:54;19.60;99.90
27759;DHT22;15148;48.972;12.794;2023-05-21T20:24:58;19.50;99.90
27759;DHT22;15148;48.972;12.794;2023-05-21T20:30:00;19.40;99.90
27759;DHT22;15148;48.972;12.794;2023-05-21T20:35:02;19.20;99.90
27759;DHT22;15148;48.972;12.794;2023-05-21T20:40:05;19.30;99.90
27759;DHT22;15148;48.972;12.794;2023-05-21T20:45:08;19.20;99.90
27759;DHT22;15148;48.972;12.794;2023-05-21T20:50:10;19.10;99.90
27759;DHT22;15148;48.972;12.794;2023-05-21T20:55:12;19.00;99.90
27759;DHT22;15148;48.972;12.794;2023-05-21T21:00:15;19.00;99.90
27759;DHT22;15148;48.972;12.794;2023-05-21T21:05:17;19.00;99.90
27759;DHT22;15148;48.972;12.794;2023-05-21T21:10:20;19.00;99.90
27759;DHT22;15148;48.972;12.794;2023-05-21T21:15:22;18.90;99.90
27759;DHT22;15148;48.972;12.794;2023-05-21T21:20:24;18.90;99.90
27759;DHT22;15148;48.972;12.794;2023-05-21T21:25:26;19.00;99.90
27759;DHT22;15148;48.972;12.794;2023-05-21T21:30:28;19.00;99.90
27759;DHT22;15148;48.972;12.794;2023-05-21T21:35:29;18.90;99.90
27759;DHT22;15148;48.972;12.794;2023-05-21T21:40:31;18.80;99.90
27759;DHT22;15148;48.972;12.794;2023-05-21T21:45:33;18.70;99.90
27759;DHT22;15148;48.972;12.794;2023-05-21T21:50:35;18.60;99.90
27759;DHT22;15148;48.972;12.794;2023-05-21T21:55:37;18.50;99.90
27759;DHT22;15148;48.972;12.794;2023-05-21T22:00:39;18.40;99.90
27759;DHT22;15148;48.972;12.794;2023-05-21T22:05:41;18.20;99.90
27759;DHT22;15148;48.972;12.794;2023-05-21T22:10:43;18.00;99.90
27759;DHT22;15148;48.972;12.794;2023-05-21T22:15:45;17.90;99.90
27759;DHT22;15148;48.972;12.794;2023-05-21T22:20:47;17.90;99.90
27759;DHT22;15148;48.972;12.794;2023-05-21T22:25:51;17.80;99.90
27759;DHT22;15148;48.972;12.794;2023-05-21T22:30:53;17.70;99.90
27759;DHT22;15148;48.972;12.794;2023-05-21T22:35:55;17.60;99.90
27759;DHT22;15148;48.972;12.794;2023-05-21T22:40:57;17.40;99.90
27759;DHT22;15148;48.972;12.794;2023-05-21T22:45:59;17.30;99.90
27759;DHT22;15148;48.972;12.794;2023-05-21T22:51:02;17.30;99.90
27759;DHT22;15148;48.972;12.794;2023-05-21T22:56:06;17.40;99.90
27759;DHT22;15148;48.972;12.794;2023-05-21T23:01:08;17.40;99.90
27759;DHT22;15148;48.972;12.794;2023-05-21T23:06:10;17.30;99.90
27759;DHT22;15148;48.972;12.794;2023-05-21T23:11:12;17.30;99.90
27759;DHT22;15148;48.972;12.794;2023-05-21T23:16:14;17.40;99.90
27759;DHT22;15148;48.972;12.794;2023-05-21T23:21:17;17.40;99.90
27759;DHT22;15148;48.972;12.794;2023-05-21T23:26:19;17.50;99.90
27759;DHT22;15148;48.972;12.794;2023-05-21T23:31:22;17.50;99.90
27759;DHT22;15148;48.972;12.794;2023-05-21T23:36:24;17.70;99.90
27759;DHT22;15148;48.972;12.794;2023-05-21T23:41:26;17.90;99.90
27759;DHT22;15148;48.972;12.794;2023-05-21T23:46:28;18.00;99.90
27759;DHT22;15148;48.972;12.794;2023-05-21T23:51:30;18.00;99.90
27759;DHT22;15148;48.972;12.794;2023-05-21T23:56:31;18.10;99.90
